createdAt,value
2022-10-25T00:00:30.956Z,153.52381
2022-10-25T00:05:32.944Z,163.21708
2022-10-25T00:10:34.710Z,159.38462
2022-10-25T00:15:36.608Z,145.96721
2022-10-25T00:20:38.520Z,145.30719
2022-10-25T00:25:40.261Z,136.5
2022-10-25T00:30:42.034Z,130.66667
2022-10-25T00:35:44.016Z,124.64516
2022-10-25T00:40:46.007Z,123.06977
2022-10-25T00:45:47.810Z,121.52161
2022-10-25T00:50:49.617Z,124.11696
2022-10-25T00:55:51.408Z,119
2022-10-25T01:00:53.078Z,117.03371
2022-10-25T01:05:54.876Z,111.3913
2022-10-25T01:10:56.367Z,105.25654
2022-10-25T01:15:57.806Z,110.03774
2022-10-25T01:20:59.380Z,110.93767
2022-10-25T01:26:00.893Z,116.06704
2022-10-25T01:31:02.447Z,115.58774
2022-10-25T01:36:04.555Z,117.52113
2022-10-25T01:41:06.018Z,114.16575
2022-10-25T01:46:07.771Z,116.54902
2022-10-25T01:51:09.357Z,112.76712
2022-10-25T01:56:10.827Z,117.52113
2022-10-25T02:01:12.692Z,119.49858
2022-10-25T02:06:14.877Z,121.52161
2022-10-25T02:11:16.328Z,126.78932
2022-10-25T02:16:17.945Z,137.10345
2022-10-25T02:21:19.828Z,138.93671
2022-10-25T02:26:21.459Z,137.10345
2022-10-25T02:31:22.889Z,142.07074
2022-10-25T02:36:24.698Z,146.63158
2022-10-25T02:41:26.122Z,141.4359
2022-10-25T02:46:27.591Z,141.4359
2022-10-25T02:51:29.128Z,140.80511
2022-10-25T02:56:30.643Z,143.35275
2022-10-25T03:01:32.199Z,140.17834
2022-10-25T03:06:34.234Z,138.32177
2022-10-25T03:11:35.887Z,132.3792
2022-10-25T03:16:37.649Z,141.4359
2022-10-25T03:21:41.885Z,132.3792
2022-10-25T03:26:43.701Z,126.78932
2022-10-25T03:31:45.278Z,126.24852
2022-10-25T03:36:47.113Z,121.52161
2022-10-25T03:41:48.660Z,117.03371
2022-10-25T03:46:50.123Z,118.50425
2022-10-25T03:51:53.965Z,114.16575
2022-10-25T03:56:59.551Z,113.69697
2022-10-25T04:02:01.547Z,119
2022-10-25T04:07:03.615Z,124.64516
2022-10-25T04:12:05.571Z,114.16575
2022-10-25T04:17:07.304Z,104.41667
2022-10-25T04:22:09.428Z,112.30601
2022-10-25T04:27:11.466Z,131.23404
2022-10-25T04:32:13.302Z,130.10272
2022-10-25T04:37:15.727Z,107.82979
2022-10-25T04:42:17.732Z,142.70968
2022-10-25T04:47:19.476Z,125.17647
2022-10-25T04:52:21.362Z,132.3792
2022-10-25T04:57:23.121Z,155.68385
2022-10-25T05:02:24.621Z,175.57895
2022-10-25T05:07:26.855Z,190.4
2022-10-25T05:12:28.854Z,148.65116
2022-10-25T05:17:30.507Z,152.81356
2022-10-25T05:22:32.083Z,146.63158
2022-10-25T05:27:33.938Z,141.4359
2022-10-25T05:32:35.846Z,186.51969
2022-10-25T05:37:37.723Z,266.51309
2022-10-25T05:42:39.396Z,282.46154
2022-10-25T05:47:40.840Z,284.33149
2022-10-25T05:52:42.740Z,377.80282
2022-10-25T05:57:44.568Z,338.87179
2022-10-25T06:02:46.714Z,425.25
2022-10-25T06:07:49.083Z,432.88889
2022-10-25T06:12:51.140Z,410.66667
2022-10-25T06:17:52.844Z,396.94118
2022-10-25T06:22:54.859Z,504
2022-10-25T06:27:56.441Z,542.05825
2022-10-25T06:32:59.849Z,620.92308
2022-10-25T06:38:02.574Z,560
2022-10-25T06:43:04.222Z,668.70588
2022-10-25T06:48:05.822Z,606.36559
2022-10-25T06:53:07.479Z,636.13483
2022-10-25T06:58:09.007Z,606.36559
2022-10-25T07:03:10.478Z,592.42105
2022-10-25T07:08:13.028Z,660.27907
2022-10-25T07:13:14.508Z,849.88235
2022-10-25T07:18:16.283Z,566.22222
2022-10-25T07:23:18.314Z,733.74359
2022-10-25T07:28:19.889Z,668.70588
2022-10-25T07:33:21.483Z,636.13483
2022-10-25T07:38:26.994Z,776.43243
2022-10-25T07:43:29.421Z,723.74684
2022-10-25T07:48:31.019Z,660.27907
2022-10-25T07:53:32.681Z,599.31915
2022-10-25T07:58:34.610Z,636.13483
2022-10-25T08:03:36.503Z,475.03448
2022-10-25T08:08:38.212Z,519.70093
2022-10-25T08:13:39.907Z,714
2022-10-25T08:18:41.350Z,599.31915
2022-10-25T08:23:42.862Z,723.74684
2022-10-25T08:28:44.528Z,704.49383
2022-10-25T08:33:46.104Z,613.56522
2022-10-25T08:38:47.925Z,668.70588
2022-10-25T08:43:49.688Z,579.05155
2022-10-25T08:48:51.306Z,704.49383
2022-10-25T08:58:54.384Z,660.27907
2022-10-25T09:03:55.811Z,714
2022-10-25T09:08:57.448Z,754.52632
2022-10-25T09:13:58.888Z,599.31915
2022-10-25T09:19:00.487Z,628.44444
2022-10-25T09:24:02.365Z,695.21951
2022-10-25T09:29:03.962Z,704.49383
2022-10-25T09:34:05.450Z,723.74684
2022-10-25T09:39:07.062Z,668.70588
2022-10-25T09:44:08.553Z,765.33333
2022-10-25T09:49:10.247Z,733.74359
2022-10-25T09:54:12.026Z,765.33333
2022-10-25T09:59:13.970Z,723.74684
2022-10-25T10:04:15.902Z,677.33333
2022-10-25T10:09:17.861Z,754.52632
2022-10-25T10:14:19.656Z,891.69231
2022-10-25T10:19:21.473Z,723.74684
2022-10-25T10:24:23.268Z,695.21951
2022-10-25T10:29:25.070Z,704.49383
2022-10-25T10:34:26.872Z,891.69231
2022-10-25T10:39:28.983Z,1024.70175
2022-10-25T10:44:30.758Z,849.88235
2022-10-25T10:49:32.328Z,1024.70175
2022-10-25T10:54:33.858Z,1006.06897
2022-10-25T10:59:35.421Z,877.33333
2022-10-25T11:04:37.091Z,906.5
2022-10-25T11:09:39.056Z,1024.70175
2022-10-25T11:14:40.786Z,849.88235
2022-10-25T11:19:42.464Z,1283.13043
2022-10-25T11:24:44.277Z,1283.13043
2022-10-25T11:29:46.240Z,1024.70175
2022-10-25T11:34:47.989Z,1151.84314
2022-10-25T11:39:49.999Z,1283.13043
2022-10-25T11:44:51.475Z,1106.26415
2022-10-25T11:49:56.829Z,1024.70175
2022-10-25T11:54:58.886Z,937.54839
2022-10-25T12:00:00.755Z,1044
2022-10-25T12:05:02.202Z,1024.70175
2022-10-25T12:10:03.960Z,970.66667
2022-10-25T12:15:05.428Z,1024.70175
2022-10-25T12:20:07.316Z,1446.43902
2022-10-25T12:25:09.120Z,1608.86486
2022-10-25T12:30:10.799Z,1655.11111
2022-10-25T12:35:12.274Z,1810.66667
2022-10-25T12:40:14.213Z,1446.43902
2022-10-25T12:45:15.734Z,1044
2022-10-25T12:55:19.713Z,1151.84314
2022-10-25T13:00:21.617Z,1410.66667
2022-10-25T13:05:23.205Z,1608.86486
2022-10-25T13:15:27.256Z,1755.76471
2022-10-25T13:20:29.131Z,2313.23077
2022-10-25T13:25:30.781Z,1810.66667
2022-10-25T13:30:32.684Z,2144
2022-10-25T13:35:34.677Z,2622.26087
2022-10-25T13:40:37.818Z,2313.23077
2022-10-25T13:45:39.240Z,3567.52941
2022-10-25T13:50:40.708Z,3567.52941
2022-10-25T13:55:42.332Z,3794
2022-10-25T14:00:47.798Z,3794
2022-10-25T14:05:53.124Z,2877.33333
2022-10-25T14:10:55.438Z,2225.48148
2022-10-25T14:15:56.973Z,1755.76471
2022-10-25T14:20:58.502Z,2510.66667
2022-10-25T14:26:00.133Z,2068.13793
2022-10-25T14:31:01.782Z,1931.09677
2022-10-25T14:36:03.251Z,1931.09677
2022-10-25T14:41:05.088Z,1608.86486
2022-10-25T14:46:06.594Z,1064
2022-10-25T14:51:08.222Z,1565.05263
2022-10-25T14:56:09.785Z,1201.14286
2022-10-25T15:01:11.660Z,1312.88889
2022-10-25T15:06:13.415Z,1044
2022-10-25T15:11:21.722Z,970.66667
2022-10-25T15:16:23.537Z,1176
2022-10-25T15:21:25.307Z,824
2022-10-25T15:26:27.322Z,891.69231
2022-10-25T15:31:29.135Z,1151.84314
2022-10-25T15:36:31.102Z,1254.6383
2022-10-25T15:41:33.350Z,1084.74074
2022-10-25T15:46:35.149Z,1106.26415
2022-10-25T15:51:36.967Z,849.88235
2022-10-25T15:56:38.916Z,436.8
2022-10-25T16:01:40.937Z,547.92157
2022-10-25T16:06:44.134Z,636.13483
2022-10-25T16:11:47.263Z,599.31915
2022-10-25T16:16:49.247Z,592.42105
2022-10-25T16:21:51.269Z,519.70093
2022-10-25T16:26:53.510Z,466.0339
2022-10-25T16:31:55.803Z,390.37681
2022-10-25T16:36:57.507Z,365.91781
2022-10-25T16:41:59.598Z,331.42138
2022-10-25T16:47:01.325Z,258.28571
2022-10-25T16:52:03.010Z,230.51163
2022-10-25T16:57:04.671Z,241.58454
2022-10-25T17:02:07.111Z,326.6087
2022-10-25T17:07:09.124Z,284.33149
2022-10-25T17:12:11.491Z,253.54774
2022-10-25T17:17:13.756Z,189.41833
2022-10-25T17:22:15.868Z,244.4878
2022-10-25T17:27:17.716Z,252
2022-10-25T17:32:20.096Z,245.96078
2022-10-25T17:37:22.199Z,261.52577
2022-10-25T17:42:24.676Z,261.52577
2022-10-25T17:47:26.328Z,253.54774
2022-10-25T17:52:28.080Z,253.54774
2022-10-25T17:57:29.812Z,245.96078
2022-10-25T18:02:31.655Z,225.27854
2022-10-25T18:07:34.997Z,252
2022-10-25T18:12:37.161Z,162.43972
2022-10-25T18:17:38.733Z,197.49794
2022-10-25T18:22:40.392Z,230.51163
2022-10-25T18:27:42.082Z,294
2022-10-25T18:32:43.746Z,294
2022-10-25T18:37:45.368Z,300.06936
2022-10-25T18:42:47.876Z,278.78261
2022-10-25T18:47:49.642Z,273.41176
2022-10-25T18:52:51.652Z,271.65957
2022-10-25T18:57:53.436Z,255.11111
2022-10-25T19:02:55.131Z,235.94313
2022-10-25T19:07:56.909Z,224
2022-10-25T19:12:58.528Z,200.66667
2022-10-25T19:18:00.084Z,212.99563
2022-10-25T19:23:01.738Z,237.33333
2022-10-25T19:28:03.399Z,207.24786
2022-10-25T19:33:04.851Z,212.99563
2022-10-25T19:38:06.402Z,177.33333
2022-10-25T19:43:08.159Z,198.54545
2022-10-25T19:48:10.154Z,199.60166
2022-10-25T19:53:11.953Z,197.49794
2022-10-25T19:58:13.991Z,181.83784
2022-10-25T20:03:15.886Z,207.24786
2022-10-25T20:08:17.673Z,217.77778
2022-10-25T20:13:19.755Z,197.49794
2022-10-25T20:18:21.712Z,179.1145
2022-10-25T20:23:23.482Z,181.83784
2022-10-25T20:28:25.195Z,187.47826
2022-10-25T20:33:27.008Z,190.4
2022-10-25T20:38:29.070Z,205.01695
2022-10-25T20:43:30.701Z,201.74059
2022-10-25T20:48:32.166Z,211.82609
2022-10-25T20:53:33.752Z,233.20188
2022-10-25T20:58:35.263Z,234.56604
2022-10-25T21:03:37.143Z,248.9505
2022-10-25T21:08:38.802Z,245.96078
2022-10-25T21:13:40.795Z,248.9505
2022-10-25T21:18:42.822Z,255.11111
2022-10-25T21:23:44.734Z,263.17098
2022-10-25T21:28:46.646Z,266.51309
2022-10-25T21:33:50.180Z,253.54774
2022-10-25T21:38:58.001Z,233.20188
2022-10-25T21:43:59.934Z,237.33333
2022-10-25T21:49:01.535Z,233.20188
2022-10-25T21:54:03.021Z,231.85047
2022-10-25T21:59:05.041Z,219
2022-10-25T22:04:06.702Z,235.94313
2022-10-25T22:09:08.321Z,244.4878
2022-10-25T22:14:10.088Z,253.54774
2022-10-25T22:19:11.818Z,259.89744
2022-10-25T22:24:13.649Z,269.92593
2022-10-25T22:29:15.765Z,261.52577
2022-10-25T22:34:17.845Z,248.9505
2022-10-25T22:39:19.517Z,248.9505
2022-10-25T22:49:24.005Z,250.46766
2022-10-25T22:54:25.762Z,247.44828
2022-10-25T22:59:27.716Z,278.78261
2022-10-25T23:04:29.663Z,282.46154
2022-10-25T23:09:31.621Z,185.56863
2022-10-25T23:14:33.730Z,114.63712
2022-10-25T23:19:35.838Z,130.10272
2022-10-25T23:24:37.764Z,138.93671
2022-10-25T23:29:39.782Z,131.80488
2022-10-25T23:34:41.663Z,168.81752
2022-10-25T23:39:43.538Z,231.85047
2022-10-25T23:44:45.494Z,205.01695
2022-10-25T23:49:47.265Z,219
2022-10-25T23:54:49.055Z,217.77778
2022-10-25T23:59:50.986Z,250.46766
